Time;durP1;ratioP1;P1;durP2;ratioP2;P2;SDS_P1;SDS_P2;PMS_P1;PMS_P2;Temp;Humidity;BMP_temperature;BMP_pressure;BME280_temperature;BME280_humidity;BME280_pressure;Samples;Min_cycle;Max_cycle;Signal;HPM_P1;HPM_P2
2021/05/24 00:01:14;;;;;;;16.80;7.97;;;;;;;17.65;45.48;101007.09;5096132;28;20532;-50
2021/05/24 00:03:42;;;;;;;9.73;7.20;;;;;;;17.67;45.48;101015.84;5094904;28;20973;-49
2021/05/24 00:06:09;;;;;;;13.47;8.13;;;;;;;17.39;46.12;101012.75;5095207;28;20478;-48
2021/05/24 00:08:36;;;;;;;16.53;7.17;;;;;;;17.49;46.04;101010.31;5097676;28;20462;-52
2021/05/24 00:11:05;;;;;;;10.13;7.20;;;;;;;17.53;45.62;101010.38;5096355;28;20493;-50
2021/05/24 00:13:32;;;;;;;10.80;7.30;;;;;;;17.77;45.12;101006.44;5097424;28;20763;-47
2021/05/24 00:16:00;;;;;;;18.53;6.67;;;;;;;17.68;45.04;101007.16;5095611;28;20473;-48
2021/05/24 00:18:27;;;;;;;13.40;6.53;;;;;;;17.86;44.78;101005.69;5097517;28;20522;-48
2021/05/24 00:20:59;;;;;;;10.10;6.80;;;;;;;17.78;45.12;100996.84;5095697;28;20473;-51
2021/05/24 00:23:27;;;;;;;13.17;7.00;;;;;;;17.47;45.56;101006.78;5095332;28;20477;-49
2021/05/24 00:25:55;;;;;;;12.07;5.93;;;;;;;17.59;45.23;101009.59;5096048;28;20489;-49
2021/05/24 00:28:22;;;;;;;12.03;6.43;;;;;;;17.31;45.76;101001.31;5094968;28;20457;-49
2021/05/24 00:30:50;;;;;;;13.37;6.40;;;;;;;17.70;44.88;100994.16;5095807;28;20776;-51
2021/05/24 00:33:18;;;;;;;11.97;6.10;;;;;;;17.87;44.77;100991.78;5097746;28;20691;-54
2021/05/24 00:35:45;;;;;;;9.93;6.47;;;;;;;18.12;43.88;100986.06;5096463;28;20561;-49
2021/05/24 00:38:13;;;;;;;9.33;6.43;;;;;;;18.03;44.37;100986.78;5097430;28;20458;-50
2021/05/24 00:40:41;;;;;;;10.00;6.17;;;;;;;18.07;44.10;100983.41;5096285;28;20907;-51
2021/05/24 00:43:09;;;;;;;8.33;6.20;;;;;;;17.78;44.65;100978.59;5097233;28;20980;-51
2021/05/24 00:45:38;;;;;;;10.23;6.37;;;;;;;17.87;44.32;100970.91;5096282;28;20803;-50
2021/05/24 00:48:07;;;;;;;9.93;5.47;;;;;;;17.73;44.81;100972.44;5097447;28;20492;-49
2021/05/24 00:50:34;;;;;;;10.50;6.00;;;;;;;17.84;45.00;100970.00;5095899;28;20488;-52
2021/05/24 00:53:01;;;;;;;10.57;6.10;;;;;;;17.77;45.23;100959.47;5097069;28;20791;-49
2021/05/24 00:55:29;;;;;;;12.50;6.10;;;;;;;17.81;44.88;100955.16;5096343;28;20474;-50
2021/05/24 00:57:56;;;;;;;10.17;5.90;;;;;;;18.19;44.22;100957.47;5095904;28;20552;-52
2021/05/24 01:00:29;;;;;;;12.70;5.70;;;;;;;18.04;44.38;100952.00;5095759;28;20784;-50
2021/05/24 01:02:57;;;;;;;10.00;5.50;;;;;;;18.08;44.27;100953.81;5096693;28;20572;-52
2021/05/24 01:05:32;;;;;;;9.20;5.80;;;;;;;17.95;44.69;100945.78;5095391;28;20560;-49
2021/05/24 01:07:59;;;;;;;11.87;5.90;;;;;;;17.92;44.79;100948.38;5090738;28;20527;-48
2021/05/24 01:10:27;;;;;;;10.40;5.50;;;;;;;17.87;44.74;100944.81;5095767;28;20918;-51
2021/05/24 01:12:55;;;;;;;10.43;6.00;;;;;;;18.06;44.63;100940.75;5096738;28;20513;-48
2021/05/24 01:15:22;;;;;;;9.50;6.13;;;;;;;18.08;44.50;100930.34;5095560;28;20480;-53
2021/05/24 01:17:49;;;;;;;9.23;6.20;;;;;;;18.05;44.51;100925.06;5096489;28;20464;-47
2021/05/24 01:20:16;;;;;;;7.10;5.23;;;;;;;18.16;44.36;100928.69;5095147;28;20483;-50
2021/05/24 01:22:56;;;;;;;13.83;5.80;;;;;;;18.46;43.49;100924.72;5096458;28;20478;-53
2021/05/24 01:25:23;;;;;;;12.90;6.87;;;;;;;18.15;44.17;100918.25;5095938;28;20478;-50
2021/05/24 01:27:50;;;;;;;11.87;5.70;;;;;;;18.31;43.95;100914.09;5096699;28;20841;-52
2021/05/24 01:30:18;;;;;;;12.13;5.47;;;;;;;18.52;43.35;100909.97;5095116;28;20482;-50
2021/05/24 01:32:45;;;;;;;10.13;5.53;;;;;;;18.33;43.92;100917.59;5096499;28;20573;-47
2021/05/24 01:35:12;;;;;;;11.50;6.03;;;;;;;18.32;43.72;100916.72;5095119;28;20484;-53
2021/05/24 01:37:39;;;;;;;12.50;5.67;;;;;;;17.99;44.48;100909.31;5096205;28;20450;-49
2021/05/24 01:40:09;;;;;;;9.80;5.80;;;;;;;17.90;44.80;100908.31;5095665;28;20505;-51
2021/05/24 01:42:36;;;;;;;8.60;5.83;;;;;;;17.86;45.04;100909.13;5096386;28;20794;-48
2021/05/24 01:45:04;;;;;;;10.60;5.90;;;;;;;17.72;45.29;100913.25;5094767;28;20560;-49
2021/05/24 01:47:32;;;;;;;8.97;5.53;;;;;;;18.05;44.64;100912.00;5096058;28;20883;-48
2021/05/24 01:50:00;;;;;;;9.60;5.93;;;;;;;17.76;45.17;100904.63;5094700;28;20530;-50
2021/05/24 01:52:27;;;;;;;10.07;6.50;;;;;;;17.92;44.65;100909.22;5095582;28;20460;-50
2021/05/24 01:54:54;;;;;;;11.20;6.73;;;;;;;18.02;44.60;100909.34;5095392;28;20508;-48
2021/05/24 01:57:22;;;;;;;10.57;5.40;;;;;;;17.90;44.76;100910.06;5096020;28;20553;-48
2021/05/24 01:59:49;;;;;;;12.47;5.90;;;;;;;17.99;44.65;100907.56;5094620;28;20478;-46
2021/05/24 02:02:16;;;;;;;10.60;5.43;;;;;;;17.92;44.45;100901.41;5095411;28;20930;-48
2021/05/24 02:04:43;;;;;;;9.63;5.40;;;;;;;17.50;45.57;100898.19;5094416;28;20985;-49
2021/05/24 02:07:11;;;;;;;7.57;5.50;;;;;;;17.55;45.38;100895.66;5095889;28;20454;-48
2021/05/24 02:09:38;;;;;;;10.20;5.43;;;;;;;17.74;44.92;100894.16;5094512;28;20477;-49
2021/05/24 02:12:06;;;;;;;8.73;5.17;;;;;;;17.85;44.56;100896.94;5095405;28;20454;-48
2021/05/24 02:14:33;;;;;;;8.50;5.10;;;;;;;17.80;44.58;100890.78;5094648;28;20508;-47
2021/05/24 02:17:01;;;;;;;10.53;5.57;;;;;;;17.88;44.52;100889.16;5095729;28;20739;-48
2021/05/24 02:19:28;;;;;;;7.00;5.00;;;;;;;17.90;44.54;100891.78;5094753;28;20856;-49
2021/05/24 02:21:55;;;;;;;7.73;5.63;;;;;;;17.73;44.90;100883.72;5095154;28;20488;-48
2021/05/24 02:24:22;;;;;;;9.20;5.50;;;;;;;17.56;45.05;100881.75;5093980;28;20476;-50
2021/05/24 02:26:49;;;;;;;7.50;4.97;;;;;;;17.68;44.62;100876.72;5095533;28;20925;-49
2021/05/24 02:29:17;;;;;;;9.87;4.87;;;;;;;17.94;43.61;100888.34;5094004;28;20481;-52
2021/05/24 02:31:45;;;;;;;8.20;5.07;;;;;;;18.45;42.93;100886.41;5095358;28;20450;-49
2021/05/24 02:34:12;;;;;;;8.00;4.70;;;;;;;18.38;42.73;100889.81;5094429;28;20568;-49
2021/05/24 02:36:39;;;;;;;11.13;5.30;;;;;;;18.14;42.92;100880.81;5095324;28;20549;-47
2021/05/24 02:39:08;;;;;;;8.57;4.73;;;;;;;18.08;43.31;100875.50;5094680;28;20458;-51
2021/05/24 02:41:36;;;;;;;7.30;4.60;;;;;;;17.98;43.33;100876.22;5094876;28;20493;-48
2021/05/24 02:44:04;;;;;;;9.03;4.50;;;;;;;17.51;44.38;100868.66;5094284;28;20488;-48
2021/05/24 02:46:31;;;;;;;13.17;5.20;;;;;;;17.56;44.21;100866.09;5095359;28;20766;-49
2021/05/24 02:48:59;;;;;;;10.57;4.90;;;;;;;17.80;43.92;100875.13;5095397;28;20461;-48
2021/05/24 02:51:26;;;;;;;6.87;4.17;;;;;;;17.55;44.45;100872.16;5094601;28;20548;-48
2021/05/24 02:53:53;;;;;;;9.70;5.07;;;;;;;17.88;43.94;100877.81;5095127;28;20480;-48
2021/05/24 02:56:20;;;;;;;10.97;5.07;;;;;;;17.39;44.41;100869.31;5094295;28;20511;-46
2021/05/24 02:58:48;;;;;;;10.00;4.67;;;;;;;17.60;43.53;100867.91;5095614;28;21312;-48
2021/05/24 03:01:15;;;;;;;7.30;4.63;;;;;;;17.76;43.29;100862.88;5093653;28;20942;-49
2021/05/24 03:03:42;;;;;;;9.33;4.50;;;;;;;17.74;43.06;100868.06;5095191;28;20481;-49
2021/05/24 03:06:10;;;;;;;12.43;4.67;;;;;;;17.83;42.87;100869.94;5093981;28;20476;-49
2021/05/24 03:08:37;;;;;;;8.70;4.70;;;;;;;17.78;42.95;100875.09;5095193;28;20476;-48
2021/05/24 03:11:04;;;;;;;7.93;4.13;;;;;;;18.44;41.45;100873.31;5093298;28;20485;-50
2021/05/24 03:13:31;;;;;;;8.60;4.13;;;;;;;18.28;41.74;100877.50;5095344;28;20469;-46
2021/05/24 03:15:58;;;;;;;7.13;4.23;;;;;;;18.16;42.05;100878.22;5093800;28;20485;-48
2021/05/24 03:18:25;;;;;;;7.17;4.00;;;;;;;18.02;42.35;100875.41;5095197;28;20453;-50
2021/05/24 03:20:52;;;;;;;7.23;4.47;;;;;;;18.10;42.23;100876.41;5093345;28;20484;-52
2021/05/24 03:23:20;;;;;;;13.47;4.73;;;;;;;17.84;42.82;100874.28;5094488;28;20949;-48
2021/05/24 03:25:47;;;;;;;10.60;5.00;;;;;;;18.01;42.15;100873.66;5094392;28;20476;-48
2021/05/24 03:28:14;;;;;;;10.17;4.90;;;;;;;18.13;42.02;100873.84;5095036;28;20458;-48
2021/05/24 03:30:41;;;;;;;7.23;4.63;;;;;;;18.15;41.60;100869.50;5093884;28;20473;-52
2021/05/24 03:33:09;;;;;;;10.40;4.43;;;;;;;18.04;41.99;100858.00;5094759;28;20478;-48
2021/05/24 03:35:36;;;;;;;7.77;4.23;;;;;;;17.91;42.44;100862.22;5093716;28;20485;-50
2021/05/24 03:38:03;;;;;;;7.50;4.60;;;;;;;18.14;41.62;100861.69;5094653;28;20462;-49
2021/05/24 03:40:31;;;;;;;8.83;4.10;;;;;;;18.20;41.46;100859.13;5096555;28;20501;-49
2021/05/24 03:42:58;;;;;;;10.40;4.80;;;;;;;18.09;41.32;100856.38;5098434;28;20493;-50
2021/05/24 03:45:27;;;;;;;8.60;4.27;;;;;;;18.08;41.52;100855.53;5097309;28;20477;-48
2021/05/24 03:47:54;;;;;;;12.47;4.50;;;;;;;17.94;42.02;100852.69;5098238;28;20458;-48
2021/05/24 03:50:22;;;;;;;7.87;4.00;;;;;;;17.76;41.67;100860.28;5096619;28;20481;-51
2021/05/24 03:52:49;;;;;;;9.67;4.87;;;;;;;18.03;41.29;100856.28;5098305;28;20470;-50
2021/05/24 03:55:17;;;;;;;8.00;3.90;;;;;;;18.08;41.38;100849.41;5097566;28;20794;-48
2021/05/24 03:57:47;;;;;;;7.43;3.90;;;;;;;18.08;40.99;100844.19;5098361;28;20532;-51
2021/05/24 04:00:15;;;;;;;14.97;7.30;;;;;;;18.20;40.46;100846.09;5096691;28;20587;-48
2021/05/24 04:02:42;;;;;;;7.20;3.40;;;;;;;18.17;40.46;100843.44;5097952;28;20590;-48
2021/05/24 04:05:16;;;;;;;18.30;8.60;;;;;;;18.31;40.27;100840.97;5096816;28;20588;-51
2021/05/24 04:07:47;;;;;;;14.50;6.63;;;;;;;17.44;41.97;100830.28;5098184;28;20459;-53
2021/05/24 04:10:16;;;;;;;9.53;4.30;;;;;;;18.11;40.61;100843.34;5097203;28;20560;-47
2021/05/24 04:12:43;;;;;;;8.17;3.50;;;;;;;18.38;39.96;100845.41;5098073;28;20476;-50
2021/05/24 04:15:14;;;;;;;11.40;3.50;;;;;;;18.27;40.29;100839.19;5096598;28;20481;-50
2021/05/24 04:17:42;;;;;;;7.27;3.30;;;;;;;17.95;40.40;100846.63;5097908;28;20454;-51
2021/05/24 04:20:11;;;;;;;6.13;3.10;;;;;;;18.00;40.57;100841.44;5096493;28;20489;-52
2021/05/24 04:22:39;;;;;;;8.80;4.30;;;;;;;18.35;40.46;100840.13;5097727;28;20523;-48
2021/05/24 04:25:07;;;;;;;15.90;3.40;;;;;;;17.92;40.55;100838.75;5096814;28;20477;-46
2021/05/24 04:27:34;;;;;;;5.97;3.33;;;;;;;18.48;39.96;100834.22;5097821;28;20461;-53
2021/05/24 04:30:02;;;;;;;9.37;3.30;;;;;;;18.37;40.02;100838.44;5095909;28;20481;-47
2021/05/24 04:32:30;;;;;;;8.30;3.77;;;;;;;18.39;40.42;100839.31;5097085;28;20464;-52
2021/05/24 04:34:57;;;;;;;9.00;3.93;;;;;;;17.93;40.56;100839.63;5096568;28;20483;-51
2021/05/24 04:37:24;;;;;;;9.40;3.30;;;;;;;18.27;40.27;100841.78;5097550;28;20557;-51
2021/05/24 04:39:52;;;;;;;9.20;4.50;;;;;;;17.52;41.68;100838.19;5096585;28;20507;-50
2021/05/24 04:42:21;;;;;;;7.10;2.83;;;;;;;18.39;39.77;100838.44;5097055;28;20481;-53
2021/05/24 04:44:48;;;;;;;12.90;7.37;;;;;;;17.96;41.61;100829.22;5096325;28;20478;-47
2021/05/24 04:47:16;;;;;;;9.07;4.20;;;;;;;18.34;40.37;100835.78;5097430;28;20461;-53
2021/05/24 04:49:49;;;;;;;25.27;15.60;;;;;;;18.33;40.10;100826.19;5095957;28;20507;-47
2021/05/24 04:52:17;;;;;;;58.10;31.17;;;;;;;18.41;40.44;100821.91;5096469;28;20454;-54
2021/05/24 04:54:45;;;;;;;10.57;5.00;;;;;;;17.88;41.24;100826.53;5096549;28;20568;-52
2021/05/24 04:57:12;;;;;;;19.00;8.70;;;;;;;18.19;41.19;100832.13;5097054;28;20585;-48
2021/05/24 04:59:39;;;;;;;13.23;5.80;;;;;;;17.97;40.82;100828.38;5095882;28;20568;-48
2021/05/24 05:02:06;;;;;;;6.33;2.70;;;;;;;17.76;41.09;100826.34;5096824;28;20454;-53
2021/05/24 05:04:34;;;;;;;18.23;10.87;;;;;;;18.11;41.20;100823.34;5095579;28;20485;-50
2021/05/24 05:07:02;;;;;;;31.07;16.20;;;;;;;18.26;41.23;100811.31;5096996;28;20453;-52
2021/05/24 05:09:29;;;;;;;6.10;3.03;;;;;;;18.42;40.04;100813.25;5096057;28;20970;-49
2021/05/24 05:11:56;;;;;;;16.27;7.63;;;;;;;18.62;39.74;100804.72;5096768;28;20489;-51
2021/05/24 05:14:23;;;;;;;7.50;3.73;;;;;;;19.07;38.98;100809.47;5095760;28;20508;-50
2021/05/24 05:16:51;;;;;;;7.83;3.17;;;;;;;19.14;38.76;100804.28;5096776;28;20552;-50
2021/05/24 05:19:18;;;;;;;5.73;3.00;;;;;;;19.26;38.45;100798.28;5095803;28;21150;-52
2021/05/24 05:21:46;;;;;;;6.27;3.13;;;;;;;19.39;38.15;100800.97;5096303;28;20458;-52
2021/05/24 05:24:14;;;;;;;5.27;2.37;;;;;;;18.39;40.36;100796.63;5095116;28;20969;-49
2021/05/24 05:26:42;;;;;;;14.43;7.80;;;;;;;18.68;40.12;100791.72;5096471;28;20460;-49
2021/05/24 05:29:09;;;;;;;24.67;11.43;;;;;;;18.85;39.30;100790.97;5095654;28;20494;-50
2021/05/24 05:31:36;;;;;;;5.80;2.37;;;;;;;18.29;39.96;100791.34;5096130;28;20772;-49
2021/05/24 05:34:04;;;;;;;7.33;2.27;;;;;;;18.81;39.08;100790.06;5095185;28;20509;-50
2021/05/24 05:36:32;;;;;;;5.00;2.40;;;;;;;18.71;39.21;100796.09;5096207;28;20562;-50
2021/05/24 05:38:59;;;;;;;4.10;1.80;;;;;;;18.52;39.52;100790.69;5095986;28;20737;-52
2021/05/24 05:41:28;;;;;;;10.30;4.73;;;;;;;19.21;39.01;100793.84;5095988;28;20520;-48
2021/05/24 05:43:55;;;;;;;11.37;6.60;;;;;;;19.50;37.71;100801.91;5096239;28;20577;-48
2021/05/24 05:46:22;;;;;;;6.63;1.93;;;;;;;19.10;38.12;100801.63;5094895;28;20769;-48
2021/05/24 05:48:49;;;;;;;7.20;3.67;;;;;;;18.60;39.70;100798.59;5096194;28;21005;-51
2021/05/24 05:51:17;;;;;;;5.33;2.07;;;;;;;18.44;39.62;100798.47;5094370;28;20758;-50
2021/05/24 05:53:44;;;;;;;11.43;4.80;;;;;;;19.28;38.76;100790.44;5095900;28;20469;-51
2021/05/24 05:56:11;;;;;;;4.50;1.70;;;;;;;19.05;38.58;100785.03;5095211;28;20477;-48
2021/05/24 05:58:39;;;;;;;7.20;3.07;;;;;;;19.23;38.72;100789.53;5095723;28;20548;-51
2021/05/24 06:01:06;;;;;;;19.67;8.20;;;;;;;19.65;38.65;100789.75;5094414;28;20938;-51
2021/05/24 06:03:33;;;;;;;5.60;2.50;;;;;;;19.92;37.28;100789.00;5094722;28;20520;-50
2021/05/24 06:06:01;;;;;;;5.57;2.40;;;;;;;19.55;37.60;100789.69;5094645;28;20532;-49
2021/05/24 06:08:28;;;;;;;5.93;1.97;;;;;;;20.08;37.41;100779.47;5096070;28;20464;-46
2021/05/24 06:10:56;;;;;;;12.13;4.77;;;;;;;20.47;36.66;100774.28;5094753;28;20476;-50
2021/05/24 06:13:23;;;;;;;12.03;6.80;;;;;;;20.55;36.88;100776.06;5095811;28;20470;-52
2021/05/24 06:15:51;;;;;;;7.63;2.17;;;;;;;20.22;37.04;100774.28;5093978;28;20486;-49
2021/05/24 06:18:19;;;;;;;4.83;2.40;;;;;;;20.20;36.94;100776.00;5095661;28;20457;-50
2021/05/24 06:20:47;;;;;;;7.63;2.90;;;;;;;20.23;37.43;100785.63;5094154;28;20758;-49
2021/05/24 06:23:14;;;;;;;7.87;3.27;;;;;;;20.32;37.68;100783.03;5095702;28;20787;-52
2021/05/24 06:25:42;;;;;;;5.33;2.20;;;;;;;19.69;38.06;100770.59;5094445;28;20467;-46
2021/05/24 06:28:09;;;;;;;7.30;3.43;;;;;;;20.45;37.55;100762.94;5095796;28;20552;-48
2021/05/24 06:30:37;;;;;;;7.53;3.83;;;;;;;20.32;37.50;100766.44;5093949;28;20564;-51
2021/05/24 06:33:05;;;;;;;4.77;2.00;;;;;;;19.80;37.91;100768.88;5095364;28;20479;-50
2021/05/24 06:35:33;;;;;;;6.23;2.60;;;;;;;20.19;38.00;100770.75;5094186;28;20518;-49
2021/05/24 06:38:00;;;;;;;4.77;2.50;;;;;;;20.65;36.98;100764.69;5095521;28;20455;-48
2021/05/24 06:40:27;;;;;;;6.60;1.80;;;;;;;21.03;36.48;100766.44;5094292;28;20474;-51
2021/05/24 06:42:54;;;;;;;5.80;1.97;;;;;;;20.71;36.68;100763.84;5095306;28;20570;-50
2021/05/24 06:45:21;;;;;;;3.80;1.47;;;;;;;20.06;37.50;100772.50;5093998;28;20487;-49
2021/05/24 06:47:48;;;;;;;4.20;1.67;;;;;;;20.34;37.35;100776.03;5095234;28;20455;-49
2021/05/24 06:50:16;;;;;;;6.23;1.83;;;;;;;20.68;36.79;100774.31;5093908;28;20567;-52
2021/05/24 06:52:43;;;;;;;5.50;1.43;;;;;;;19.93;38.14;100784.63;5095381;28;20480;-52
2021/05/24 06:55:12;;;;;;;6.30;2.90;;;;;;;20.63;37.84;100777.78;5094433;28;20543;-48
2021/05/24 06:57:39;;;;;;;5.77;1.70;;;;;;;21.04;36.41;100768.19;5095149;28;20459;-49
2021/05/24 07:00:11;;;;;;;6.97;2.07;;;;;;;21.01;37.21;100762.97;5093844;28;20487;-51
2021/05/24 07:02:38;;;;;;;6.00;1.57;;;;;;;21.04;36.86;100773.44;5095201;28;20580;-53
2021/05/24 07:05:07;;;;;;;3.50;1.30;;;;;;;20.16;37.85;100762.91;5094033;28;20562;-53
2021/05/24 07:07:35;;;;;;;3.10;1.30;;;;;;;20.04;38.13;100758.53;5095181;28;20583;-48
2021/05/24 07:10:03;;;;;;;3.10;1.33;;;;;;;20.49;38.26;100751.59;5094208;28;20551;-49
2021/05/24 07:12:31;;;;;;;7.70;2.10;;;;;;;21.18;36.88;100747.19;5094810;28;20459;-49
2021/05/24 07:14:58;;;;;;;6.17;2.20;;;;;;;21.69;35.51;100750.53;5096122;28;20481;-45
2021/05/24 07:17:25;;;;;;;6.03;1.47;;;;;;;21.04;37.04;100747.22;5099275;28;20484;-48
2021/05/24 07:19:52;;;;;;;5.20;2.00;;;;;;;21.04;36.12;100747.22;5097568;28;20480;-51
2021/05/24 07:22:19;;;;;;;6.60;2.20;;;;;;;21.07;36.46;100741.09;5098708;28;20458;-48
2021/05/24 07:24:47;;;;;;;4.93;1.73;;;;;;;21.34;36.02;100744.53;5097960;28;20568;-45
2021/05/24 07:27:14;;;;;;;3.80;1.23;;;;;;;20.89;36.87;100737.63;5098882;28;20460;-47
2021/05/24 07:29:41;;;;;;;5.80;2.30;;;;;;;21.39;35.93;100724.38;5097749;28;20479;-50
2021/05/24 07:32:10;;;;;;;3.63;1.33;;;;;;;21.08;36.17;100729.75;5098560;28;20454;-48
2021/05/24 07:34:38;;;;;;;4.50;1.50;;;;;;;20.86;36.93;100721.91;5097698;28;20563;-50
2021/05/24 07:37:05;;;;;;;5.47;2.80;;;;;;;21.45;35.91;100724.34;5098838;28;20460;-51
2021/05/24 07:39:32;;;;;;;4.87;1.20;;;;;;;21.39;36.09;100721.75;5097727;28;20845;-46
2021/05/24 07:42:01;;;;;;;5.33;1.23;;;;;;;21.86;35.26;100729.47;5098411;28;20450;-48
2021/05/24 07:44:29;;;;;;;5.00;2.10;;;;;;;23.30;33.86;100718.59;5097187;28;20562;-52
2021/05/24 07:46:56;;;;;;;4.23;1.10;;;;;;;22.56;34.06;100710.56;5098629;28;20460;-50
2021/05/24 07:49:23;;;;;;;4.93;1.20;;;;;;;22.71;33.77;100720.09;5097006;28;20474;-49
2021/05/24 07:51:51;;;;;;;8.17;3.20;;;;;;;22.19;34.63;100718.75;5098075;28;20447;-47
2021/05/24 07:54:18;;;;;;;5.83;2.17;;;;;;;21.70;35.31;100721.66;5097368;28;20748;-50
2021/05/24 07:56:45;;;;;;;4.87;1.57;;;;;;;22.38;34.50;100717.72;5098335;28;20927;-49
2021/05/24 07:59:14;;;;;;;5.03;1.30;;;;;;;21.85;35.18;100719.84;5096968;28;20486;-49
2021/05/24 08:01:41;;;;;;;7.50;2.50;;;;;;;22.40;34.80;100715.06;5097714;28;20776;-54
2021/05/24 08:04:08;;;;;;;10.00;4.27;;;;;;;22.17;35.07;100708.25;5096658;28;20505;-48
2021/05/24 08:06:35;;;;;;;4.20;1.67;;;;;;;21.53;36.17;100715.59;5098033;28;20803;-49
2021/05/24 08:09:03;;;;;;;3.50;1.47;;;;;;;21.90;34.88;100707.56;5097633;28;20468;-47
2021/05/24 08:11:30;;;;;;;5.60;1.20;;;;;;;22.43;34.60;100696.66;5097610;28;20479;-49
2021/05/24 08:13:57;;;;;;;4.80;1.47;;;;;;;22.66;34.50;100695.59;5098069;28;20488;-51
2021/05/24 08:16:25;;;;;;;6.03;2.50;;;;;;;22.13;35.02;100703.88;5097694;28;20487;-46
2021/05/24 08:18:52;;;;;;;7.47;1.50;;;;;;;22.20;35.28;100697.69;5098017;28;20462;-46
2021/05/24 08:21:19;;;;;;;8.20;1.90;;;;;;;22.09;35.58;100696.91;5095573;28;20462;-49
2021/05/24 08:23:47;;;;;;;5.20;1.90;;;;;;;22.38;34.86;100693.19;5096852;28;20551;-47
2021/05/24 08:26:14;;;;;;;3.70;1.33;;;;;;;22.50;34.36;100684.31;5095447;28;20475;-49
2021/05/24 08:28:41;;;;;;;5.70;1.30;;;;;;;22.62;35.12;100680.75;5097999;28;20461;-51
2021/05/24 08:31:08;;;;;;;7.57;1.47;;;;;;;24.06;33.57;100675.47;5096018;28;20474;-49
2021/05/24 08:33:36;;;;;;;5.03;1.80;;;;;;;22.97;33.89;100681.28;5097396;28;20477;-52
2021/05/24 08:36:04;;;;;;;2.50;0.70;;;;;;;22.87;33.06;100675.25;5096080;28;20487;-46
2021/05/24 08:38:31;;;;;;;4.07;1.33;;;;;;;23.38;32.63;100671.19;5097583;28;20969;-47
2021/05/24 08:41:05;;;;;;;4.50;1.20;;;;;;;24.47;32.15;100672.19;5096640;28;20570;-51
2021/05/24 08:43:33;;;;;;;4.53;1.20;;;;;;;23.83;32.74;100679.31;5096684;28;20516;-54
2021/05/24 08:46:00;;;;;;;33.03;12.63;;;;;;;23.82;32.85;100661.78;5095907;28;20938;-49
2021/05/24 08:48:28;;;;;;;3.90;1.00;;;;;;;24.31;32.04;100661.94;5097164;28;20547;-53
2021/05/24 08:50:56;;;;;;;7.53;1.03;;;;;;;23.66;33.33;100665.53;5095560;28;20570;-50
2021/05/24 08:53:23;;;;;;;3.33;1.40;;;;;;;24.20;32.08;100650.69;5097067;28;20828;-47
2021/05/24 08:55:53;;;;;;;3.70;1.00;;;;;;;24.58;30.88;100667.59;5095660;28;20572;-50
2021/05/24 08:58:20;;;;;;;4.17;1.00;;;;;;;23.63;31.69;100649.78;5096928;28;20474;-51
2021/05/24 09:00:48;;;;;;;2.87;0.97;;;;;;;23.30;32.36;100659.00;5095183;28;20465;-48
2021/05/24 09:03:16;;;;;;;5.03;1.07;;;;;;;24.01;31.13;100662.34;5097098;28;20514;-52
2021/05/24 09:05:44;;;;;;;3.30;0.90;;;;;;;24.06;31.13;100653.50;5095217;28;20913;-51
2021/05/24 09:08:13;;;;;;;5.40;2.20;;;;;;;24.21;31.41;100655.06;5096426;28;20547;-51
2021/05/24 09:10:42;;;;;;;8.13;3.60;;;;;;;24.00;32.43;100659.75;5095871;28;20499;-47
2021/05/24 09:13:10;;;;;;;6.43;2.70;;;;;;;24.34;30.43;100648.69;5096586;28;20521;-52
2021/05/24 09:15:38;;;;;;;4.17;1.27;;;;;;;23.43;31.66;100653.56;5094495;28;20485;-51
2021/05/24 09:18:07;;;;;;;4.97;1.37;;;;;;;22.98;32.08;100657.59;5096547;28;20911;-50
2021/05/24 09:20:36;;;;;;;4.23;1.37;;;;;;;23.73;31.54;100654.00;5095245;28;20480;-53
2021/05/24 09:23:22;;;;;;;6.23;2.13;;;;;;;23.13;31.40;100643.34;5096178;28;20767;-53
2021/05/24 09:25:55;;;;;;;4.00;1.40;;;;;;;23.16;31.75;100645.09;5095672;28;20467;-51
2021/05/24 09:28:37;;;;;;;5.43;2.43;;;;;;;24.32;30.43;100639.94;5096285;28;20972;-52
2021/05/24 09:31:08;;;;;;;5.83;1.40;;;;;;;24.56;29.63;100637.75;5094880;28;20785;-50
2021/05/24 09:33:36;;;;;;;7.20;1.70;;;;;;;24.04;30.51;100640.34;5096321;28;20485;-57
2021/05/24 09:36:04;;;;;;;5.87;1.63;;;;;;;24.02;30.20;100634.25;5095009;28;20985;-53
2021/05/24 09:38:41;;;;;;;8.03;2.63;;;;;;;23.86;30.91;100631.88;5096586;28;20507;-51
2021/05/24 09:41:10;;;;;;;6.33;1.83;;;;;;;23.99;30.68;100621.09;5095581;28;20474;-53
2021/05/24 09:43:44;;;;;;;4.77;1.73;;;;;;;24.26;29.93;100617.19;5096240;28;20526;-45
2021/05/24 09:46:19;;;;;;;3.43;1.00;;;;;;;24.26;30.40;100616.31;5094964;28;20564;-52
2021/05/24 09:48:48;;;;;;;5.10;1.70;;;;;;;24.91;29.61;100612.47;5095424;28;20923;-50
2021/05/24 09:51:21;;;;;;;4.37;0.93;;;;;;;24.65;29.29;100605.94;5094571;28;20485;-47
2021/05/24 09:53:58;;;;;;;4.10;0.90;;;;;;;25.05;28.41;100598.13;5093119;28;20484;-56
2021/05/24 09:56:26;;;;;;;7.40;1.67;;;;;;;24.17;29.86;100600.66;5093922;28;20469;-51
2021/05/24 09:59:15;;;;;;;3.93;0.90;;;;;;;24.12;29.15;100601.63;5095777;28;20461;-48
2021/05/24 10:01:45;;;;;;;3.97;1.10;;;;;;;25.03;27.99;100595.50;5090828;28;20495;-51
2021/05/24 10:04:15;;;;;;;9.87;3.00;;;;;;;24.62;28.44;100598.06;5076470;28;20587;-53
2021/05/24 10:06:43;;;;;;;11.07;1.80;;;;;;;24.93;28.79;100579.00;5075090;28;20557;-49
2021/05/24 10:09:13;;;;;;;7.77;3.40;;;;;;;25.00;29.13;100563.94;5075090;28;20556;-49
2021/05/24 10:11:43;;;;;;;7.60;1.40;;;;;;;24.99;29.65;100588.59;5069489;28;20460;-50
2021/05/24 10:14:11;;;;;;;7.93;3.03;;;;;;;26.25;27.14;100561.88;5074369;28;20762;-50
2021/05/24 10:16:42;;;;;;;4.40;1.30;;;;;;;25.86;27.46;100561.97;5072458;28;20465;-49
2021/05/24 10:19:11;;;;;;;5.13;1.57;;;;;;;25.66;27.42;100570.41;5054300;28;20465;-55
2021/05/24 10:21:38;;;;;;;4.70;0.97;;;;;;;24.68;28.34;100584.75;5054849;28;20558;-50
2021/05/24 10:24:06;;;;;;;7.60;2.70;;;;;;;24.28;28.48;100572.34;5054706;28;20492;-54
2021/05/24 10:26:35;;;;;;;5.10;1.80;;;;;;;24.21;28.45;100573.38;5074716;28;20813;-57
2021/05/24 10:29:03;;;;;;;8.80;2.20;;;;;;;24.54;28.13;100563.97;5075077;28;20811;-53
2021/05/24 10:31:32;;;;;;;5.60;1.73;;;;;;;24.58;28.10;100563.88;5095209;28;20798;-54
2021/05/24 10:34:11;;;;;;;7.53;2.03;;;;;;;25.07;27.71;100549.69;5093930;28;20479;-49
2021/05/24 10:36:38;;;;;;;6.13;2.47;;;;;;;25.85;27.17;100549.69;5094971;28;20476;-55
2021/05/24 10:39:13;;;;;;;22.23;12.43;;;;;;;26.52;26.29;100546.19;5094612;28;20475;-53
2021/05/24 10:41:48;;;;;;;4.93;1.23;;;;;;;26.04;26.68;100546.56;5095220;28;20466;-50
2021/05/24 10:44:16;;;;;;;5.93;2.60;;;;;;;25.47;27.05;100537.34;5093951;28;20487;-54
2021/05/24 10:46:44;;;;;;;5.80;1.70;;;;;;;26.06;26.71;100539.47;5095183;28;20471;-54
2021/05/24 10:49:16;;;;;;;7.13;2.97;;;;;;;24.89;27.27;100537.78;5089343;28;20858;-52
2021/05/24 10:51:52;;;;;;;4.07;1.03;;;;;;;24.49;28.11;100550.00;5074883;28;20457;-53
2021/05/24 10:54:31;;;;;;;7.20;2.90;;;;;;;24.64;27.02;100554.09;5074166;28;20937;-52
2021/05/24 10:57:19;;;;;;;5.13;1.10;;;;;;;25.56;25.71;100543.34;5074909;28;20541;-47
2021/05/24 10:59:59;;;;;;;5.40;1.60;;;;;;;25.70;25.16;100528.03;5073562;28;20478;-50
2021/05/24 11:02:37;;;;;;;3.40;1.17;;;;;;;25.19;25.47;100531.84;5078981;28;20791;-50
2021/05/24 11:05:19;;;;;;;6.00;1.10;;;;;;;25.54;25.21;100522.28;5093482;28;20479;-53
2021/05/24 11:07:47;;;;;;;3.13;0.80;;;;;;;26.04;23.97;100512.22;5094896;28;20525;-48
2021/05/24 11:10:28;;;;;;;5.60;1.50;;;;;;;26.78;23.50;100518.09;5093583;28;20488;-53
2021/05/24 11:13:20;;;;;;;6.33;1.90;;;;;;;26.28;23.87;100501.00;5095045;28;20485;-50
2021/05/24 11:15:48;;;;;;;4.03;0.97;;;;;;;25.77;23.98;100510.25;5093716;28;20543;-47
2021/05/24 11:18:23;;;;;;;4.40;1.20;;;;;;;25.02;24.54;100513.78;5094812;28;20457;-54
2021/05/24 11:20:54;;;;;;;4.90;1.00;;;;;;;26.43;23.70;100496.19;5093194;28;20567;-52
2021/05/24 11:26:15;;;;;;;5.93;1.97;;;;;;;26.36;23.50;100491.97;5091885;28;20491;-52
2021/05/24 11:28:44;;;;;;;4.33;1.03;;;;;;;27.58;22.89;100483.91;5095054;28;20496;-54
2021/05/24 11:31:14;;;;;;;5.97;1.57;;;;;;;27.29;22.45;100504.22;5093451;28;20575;-52